首页
METAR-TAF:

METAR-TAF

机场 :

Clyde, 努那武特, 加拿大

纬度: 70-29N, 经度: 068-31W, 海拔: 25米

当前天气观测

该预报发布于1小时和11分钟前的15:00 UTC
风速12节,风向北转西北
温度 5°C
湿度 93%
气压 1003 hPa
能見度: 14.5公里
天空无云

METAR: CYCY 241500Z AUTO 34012KT 9SM CLR 05/04 A2961 RMK SLP032

时间: 12:11 (16:11 UTC)

预报

该预报发布于2小时和57分钟前的13:14 UTC
预报有效从24日的 13点(UTC)到 25日的 01点(UTC)
风速10节,风向北转西北
能見度: 10公里
散云层高于1200英尺
多云层高于3000英尺
短暂存在
从 24日的 13点(UTC)到 25日的 01点(UTC)
散云层高于800英尺
多云层高于1200英尺
阴天层高于3000英尺
几率 30%
从 24日的 22点(UTC)到 25日的 01点(UTC)
能見度: 3.2公里
多云层高于800英尺
轻雾

TAF: CYCY 241314Z 2413/2501 34010KT P6SM SCT012 BKN030 TEMPO 2413/2501 SCT008 BKN012 OVC030 PROB30 2422/2501 2SM BR BKN008 RMK FCST BASED ON AUTO OBS. NXT FCST BY 241900Z

超过4000个机场的气象观测和天气预报(METAR&TAF报告)。

可查询的气象台以黄色和红色小点在地图上表示。

将鼠标移到小点上方,可查看气象台名称。

然后点击查看天气观测和预报。

如需切换地图:点击带黑十字的绿色按钮放大地图;点击带横线的绿色按钮缩小地图;或者点击绿色箭头查看邻近地区的地图。


METAR-TAF: